sensor_id;sensor_type;location;lat;lon;timestamp;pressure;altitude;pressure_sealevel;temperature;humidity
74218;BME280;62579;47.288;18.646;2023-08-17T00:00:37;100103.38;;;20.08;99.47
74218;BME280;62579;47.288;18.646;2023-08-17T00:03:03;100104.69;;;19.99;100.00
74218;BME280;62579;47.288;18.646;2023-08-17T00:05:28;100102.66;;;20.00;100.00
74218;BME280;62579;47.288;18.646;2023-08-17T00:07:53;100097.87;;;20.00;100.00
74218;BME280;62579;47.288;18.646;2023-08-17T00:10:18;100098.78;;;20.10;100.00
74218;BME280;62579;47.288;18.646;2023-08-17T00:12:44;100101.37;;;20.08;100.00
74218;BME280;62579;47.288;18.646;2023-08-17T00:15:09;100091.78;;;20.17;100.00
74218;BME280;62579;47.288;18.646;2023-08-17T00:17:34;100094.16;;;20.13;100.00
74218;BME280;62579;47.288;18.646;2023-08-17T00:19:59;100085.53;;;20.09;100.00
74218;BME280;62579;47.288;18.646;2023-08-17T00:22:25;100090.12;;;20.14;100.00
74218;BME280;62579;47.288;18.646;2023-08-17T00:24:50;100091.03;;;20.16;100.00
74218;BME280;62579;47.288;18.646;2023-08-17T00:27:15;100083.25;;;20.22;100.00
74218;BME280;62579;47.288;18.646;2023-08-17T00:29:40;100090.47;;;20.18;100.00
74218;BME280;62579;47.288;18.646;2023-08-17T00:32:06;100089.53;;;20.23;100.00
74218;BME280;62579;47.288;18.646;2023-08-17T00:34:31;100082.91;;;20.26;100.00
74218;BME280;62579;47.288;18.646;2023-08-17T00:36:56;100083.81;;;20.28;100.00
74218;BME280;62579;47.288;18.646;2023-08-17T00:39:21;100076.84;;;20.27;100.00
74218;BME280;62579;47.288;18.646;2023-08-17T00:41:46;100078.88;;;20.27;100.00
74218;BME280;62579;47.288;18.646;2023-08-17T00:44:12;100068.16;;;20.31;100.00
74218;BME280;62579;47.288;18.646;2023-08-17T00:46:37;100064.09;;;20.32;100.00
74218;BME280;62579;47.288;18.646;2023-08-17T00:49:03;100074.25;;;20.29;100.00
74218;BME280;62579;47.288;18.646;2023-08-17T00:51:28;100072.41;;;20.32;100.00
74218;BME280;62579;47.288;18.646;2023-08-17T00:53:59;100063.72;;;20.35;100.00
74218;BME280;62579;47.288;18.646;2023-08-17T00:56:26;100073.66;;;20.38;100.00
74218;BME280;62579;47.288;18.646;2023-08-17T00:58:52;100069.97;;;20.44;100.00
74218;BME280;62579;47.288;18.646;2023-08-17T01:01:19;100074.59;;;20.41;100.00
74218;BME280;62579;47.288;18.646;2023-08-17T01:03:44;100067.75;;;20.42;100.00
74218;BME280;62579;47.288;18.646;2023-08-17T01:06:10;100071.59;;;20.47;100.00
74218;BME280;62579;47.288;18.646;2023-08-17T01:08:35;100076.94;;;20.45;100.00
74218;BME280;62579;47.288;18.646;2023-08-17T01:11:18;100078.59;;;20.48;100.00
74218;BME280;62579;47.288;18.646;2023-08-17T01:14:30;100086.53;;;20.51;100.00
74218;BME280;62579;47.288;18.646;2023-08-17T01:16:35;100088.53;;;20.51;100.00
74218;BME280;62579;47.288;18.646;2023-08-17T01:19:04;100098.34;;;20.36;100.00
74218;BME280;62579;47.288;18.646;2023-08-17T01:21:37;100103.34;;;20.23;100.00
74218;BME280;62579;47.288;18.646;2023-08-17T01:24:05;100114.41;;;20.23;100.00
74218;BME280;62579;47.288;18.646;2023-08-17T01:26:30;100104.84;;;20.24;100.00
74218;BME280;62579;47.288;18.646;2023-08-17T01:28:55;100101.50;;;20.41;100.00
74218;BME280;62579;47.288;18.646;2023-08-17T01:31:23;100107.53;;;20.47;100.00
74218;BME280;62579;47.288;18.646;2023-08-17T01:33:50;100101.84;;;20.37;100.00
74218;BME280;62579;47.288;18.646;2023-08-17T01:36:19;100098.75;;;20.33;100.00
74218;BME280;62579;47.288;18.646;2023-08-17T01:38:45;100107.41;;;20.29;100.00
74218;BME280;62579;47.288;18.646;2023-08-17T01:41:11;100099.62;;;20.43;100.00
74218;BME280;62579;47.288;18.646;2023-08-17T01:43:43;100085.78;;;20.51;100.00
74218;BME280;62579;47.288;18.646;2023-08-17T01:46:12;100082.62;;;20.54;100.00
74218;BME280;62579;47.288;18.646;2023-08-17T01:48:38;100089.81;;;20.57;100.00
74218;BME280;62579;47.288;18.646;2023-08-17T01:51:03;100088.66;;;20.60;100.00
74218;BME280;62579;47.288;18.646;2023-08-17T01:53:28;100088.13;;;20.62;100.00
74218;BME280;62579;47.288;18.646;2023-08-17T01:55:53;100083.34;;;20.62;100.00
74218;BME280;62579;47.288;18.646;2023-08-17T01:58:18;100078.72;;;20.65;100.00
74218;BME280;62579;47.288;18.646;2023-08-17T02:00:44;100084.28;;;20.57;100.00
74218;BME280;62579;47.288;18.646;2023-08-17T02:03:09;100083.53;;;20.57;100.00
74218;BME280;62579;47.288;18.646;2023-08-17T02:05:34;100089.25;;;20.59;100.00
74218;BME280;62579;47.288;18.646;2023-08-17T02:07:59;100086.12;;;20.55;100.00
74218;BME280;62579;47.288;18.646;2023-08-17T02:10:24;100075.06;;;20.55;100.00
74218;BME280;62579;47.288;18.646;2023-08-17T02:12:50;100081.19;;;20.46;100.00
74218;BME280;62579;47.288;18.646;2023-08-17T02:15:15;100087.09;;;20.42;100.00
74218;BME280;62579;47.288;18.646;2023-08-17T02:17:41;100085.81;;;20.43;100.00
74218;BME280;62579;47.288;18.646;2023-08-17T02:20:06;100098.91;;;20.43;100.00
74218;BME280;62579;47.288;18.646;2023-08-17T02:22:31;100085.81;;;20.43;100.00
74218;BME280;62579;47.288;18.646;2023-08-17T02:24:57;100089.88;;;20.42;100.00
74218;BME280;62579;47.288;18.646;2023-08-17T02:27:22;100092.47;;;20.40;100.00
74218;BME280;62579;47.288;18.646;2023-08-17T02:29:47;100098.00;;;20.32;100.00
74218;BME280;62579;47.288;18.646;2023-08-17T02:32:12;100087.47;;;20.38;100.00
74218;BME280;62579;47.288;18.646;2023-08-17T02:34:37;100086.56;;;20.36;100.00
74218;BME280;62579;47.288;18.646;2023-08-17T02:37:02;100086.97;;;20.32;100.00
74218;BME280;62579;47.288;18.646;2023-08-17T02:39:28;100077.56;;;20.35;100.00
74218;BME280;62579;47.288;18.646;2023-08-17T02:41:53;100090.81;;;20.37;100.00
74218;BME280;62579;47.288;18.646;2023-08-17T02:44:18;100082.88;;;20.41;100.00
74218;BME280;62579;47.288;18.646;2023-08-17T02:46:43;100081.22;;;20.38;100.00
74218;BME280;62579;47.288;18.646;2023-08-17T02:49:08;100072.91;;;20.46;100.00
74218;BME280;62579;47.288;18.646;2023-08-17T02:51:34;100072.53;;;20.49;100.00
74218;BME280;62579;47.288;18.646;2023-08-17T02:53:59;100071.56;;;20.54;100.00
74218;BME280;62579;47.288;18.646;2023-08-17T02:56:24;100072.28;;;20.55;100.00
74218;BME280;62579;47.288;18.646;2023-08-17T02:58:49;100085.56;;;20.56;100.00
74218;BME280;62579;47.288;18.646;2023-08-17T03:01:15;100086.66;;;20.61;100.00
74218;BME280;62579;47.288;18.646;2023-08-17T03:03:40;100078.72;;;20.65;100.00
74218;BME280;62579;47.288;18.646;2023-08-17T03:06:05;100084.78;;;20.63;100.00
74218;BME280;62579;47.288;18.646;2023-08-17T03:08:31;100082.44;;;20.60;100.00
74218;BME280;62579;47.288;18.646;2023-08-17T03:10:56;100078.53;;;20.63;100.00
74218;BME280;62579;47.288;18.646;2023-08-17T03:13:21;100079.09;;;20.61;100.00
74218;BME280;62579;47.288;18.646;2023-08-17T03:15:46;100073.41;;;20.59;100.00
74218;BME280;62579;47.288;18.646;2023-08-17T03:18:11;100071.53;;;20.62;100.00
74218;BME280;62579;47.288;18.646;2023-08-17T03:20:37;100072.28;;;20.62;100.00
74218;BME280;62579;47.288;18.646;2023-08-17T03:23:02;100071.31;;;20.67;100.00
74218;BME280;62579;47.288;18.646;2023-08-17T03:25:31;100077.13;;;20.47;100.00
74218;BME280;62579;47.288;18.646;2023-08-17T03:27:56;100082.13;;;20.41;100.00
74218;BME280;62579;47.288;18.646;2023-08-17T03:30:21;100086.56;;;20.36;100.00
74218;BME280;62579;47.288;18.646;2023-08-17T03:32:46;100082.34;;;20.35;100.00
74218;BME280;62579;47.288;18.646;2023-08-17T03:35:11;100087.09;;;20.42;100.00
74218;BME280;62579;47.288;18.646;2023-08-17T03:37:38;100084.94;;;20.25;100.00
74218;BME280;62579;47.288;18.646;2023-08-17T03:40:03;100079.16;;;20.46;100.00
74218;BME280;62579;47.288;18.646;2023-08-17T03:42:28;100087.06;;;20.57;100.00
74218;BME280;62579;47.288;18.646;2023-08-17T03:44:54;100084.47;;;20.59;100.00
74218;BME280;62579;47.288;18.646;2023-08-17T03:47:19;100068.97;;;20.56;100.00
74218;BME280;62579;47.288;18.646;2023-08-17T03:49:44;100065.66;;;20.58;100.00
74218;BME280;62579;47.288;18.646;2023-08-17T03:52:10;100067.50;;;20.55;100.00
74218;BME280;62579;47.288;18.646;2023-08-17T03:54:35;100068.81;;;20.47;100.00
74218;BME280;62579;47.288;18.646;2023-08-17T03:57:00;100071.25;;;20.43;100.00
74218;BME280;62579;47.288;18.646;2023-08-17T03:59:26;100069.06;;;20.41;100.00
74218;BME280;62579;47.288;18.646;2023-08-17T04:01:51;100081.94;;;20.38;100.00
74218;BME280;62579;47.288;18.646;2023-08-17T04:04:16;100082.16;;;20.33;100.00
74218;BME280;62579;47.288;18.646;2023-08-17T04:06:41;100080.69;;;20.32;100.00
74218;BME280;62579;47.288;18.646;2023-08-17T04:09:06;100088.78;;;20.37;100.00
74218;BME280;62579;47.288;18.646;2023-08-17T04:11:34;100088.94;;;20.40;100.00
74218;BME280;62579;47.288;18.646;2023-08-17T04:13:59;100086.59;;;20.28;100.00
74218;BME280;62579;47.288;18.646;2023-08-17T04:16:24;100093.41;;;20.35;100.00
74218;BME280;62579;47.288;18.646;2023-08-17T04:18:49;100094.13;;;20.35;100.00
74218;BME280;62579;47.288;18.646;2023-08-17T04:21:15;100088.59;;;20.35;100.00
74218;BME280;62579;47.288;18.646;2023-08-17T04:23:40;100087.69;;;20.33;100.00
74218;BME280;62579;47.288;18.646;2023-08-17T04:26:05;100087.47;;;20.38;100.00
74218;BME280;62579;47.288;18.646;2023-08-17T04:28:30;100095.44;;;20.27;100.00
74218;BME280;62579;47.288;18.646;2023-08-17T04:30:55;100084.00;;;20.38;100.00
74218;BME280;62579;47.288;18.646;2023-08-17T04:33:20;100090.94;;;20.47;100.00
74218;BME280;62579;47.288;18.646;2023-08-17T04:35:46;100082.66;;;20.47;100.00
74218;BME280;62579;47.288;18.646;2023-08-17T04:38:12;100086.84;;;20.55;100.00
74218;BME280;62579;47.288;18.646;2023-08-17T04:40:37;100092.34;;;20.63;100.00
74218;BME280;62579;47.288;18.646;2023-08-17T04:43:03;100100.44;;;20.68;100.00
74218;BME280;62579;47.288;18.646;2023-08-17T04:45:29;100094.47;;;20.79;100.00
74218;BME280;62579;47.288;18.646;2023-08-17T04:47:54;100095.00;;;20.85;100.00
74218;BME280;62579;47.288;18.646;2023-08-17T04:50:19;100096.12;;;20.82;100.00
74218;BME280;62579;47.288;18.646;2023-08-17T04:52:45;100096.00;;;20.73;100.00
74218;BME280;62579;47.288;18.646;2023-08-17T04:55:10;100098.16;;;20.82;100.00
74218;BME280;62579;47.288;18.646;2023-08-17T04:57:35;100091.50;;;20.85;100.00
74218;BME280;62579;47.288;18.646;2023-08-17T05:00:01;100099.81;;;20.85;100.00
74218;BME280;62579;47.288;18.646;2023-08-17T05:02:26;100095.59;;;20.84;100.00
74218;BME280;62579;47.288;18.646;2023-08-17T05:04:51;100102.03;;;20.86;100.00
74218;BME280;62579;47.288;18.646;2023-08-17T05:07:16;100096.81;;;20.90;100.00
74218;BME280;62579;47.288;18.646;2023-08-17T05:09:41;100105.75;;;21.06;100.00
74218;BME280;62579;47.288;18.646;2023-08-17T05:12:07;100097.56;;;20.91;100.00
74218;BME280;62579;47.288;18.646;2023-08-17T05:14:32;100097.72;;;20.93;100.00
74218;BME280;62579;47.288;18.646;2023-08-17T05:16:57;100090.53;;;20.98;100.00
74218;BME280;62579;47.288;18.646;2023-08-17T05:19:22;100091.47;;;20.92;100.00
74218;BME280;62579;47.288;18.646;2023-08-17T05:21:47;100095.13;;;20.95;100.00
74218;BME280;62579;47.288;18.646;2023-08-17T05:24:15;100089.78;;;20.97;100.00
74218;BME280;62579;47.288;18.646;2023-08-17T05:26:40;100086.28;;;20.96;100.00
74218;BME280;62579;47.288;18.646;2023-08-17T05:29:05;100095.78;;;21.18;100.00
74218;BME280;62579;47.288;18.646;2023-08-17T05:31:31;100096.84;;;21.23;100.00
74218;BME280;62579;47.288;18.646;2023-08-17T05:33:56;100098.31;;;21.24;100.00
74218;BME280;62579;47.288;18.646;2023-08-17T05:36:21;100096.84;;;21.23;100.00
74218;BME280;62579;47.288;18.646;2023-08-17T05:38:46;100098.84;;;21.30;100.00
74218;BME280;62579;47.288;18.646;2023-08-17T05:41:11;100098.03;;;21.37;100.00
74218;BME280;62579;47.288;18.646;2023-08-17T05:43:36;100102.28;;;21.38;100.00
74218;BME280;62579;47.288;18.646;2023-08-17T05:46:02;100105.94;;;21.40;100.00
74218;BME280;62579;47.288;18.646;2023-08-17T05:48:28;100097.06;;;21.42;100.00
74218;BME280;62579;47.288;18.646;2023-08-17T05:50:53;100099.44;;;21.45;100.00
74218;BME280;62579;47.288;18.646;2023-08-17T05:53:20;100093.72;;;21.43;100.00
74218;BME280;62579;47.288;18.646;2023-08-17T05:55:45;100095.03;;;21.42;100.00
74218;BME280;62579;47.288;18.646;2023-08-17T05:58:10;100092.78;;;21.48;100.00
74218;BME280;62579;47.288;18.646;2023-08-17T06:00:35;100104.34;;;21.54;100.00
74218;BME280;62579;47.288;18.646;2023-08-17T06:03:00;100099.31;;;21.61;100.00
74218;BME280;62579;47.288;18.646;2023-08-17T06:05:29;100100.88;;;21.71;100.00
74218;BME280;62579;47.288;18.646;2023-08-17T06:07:55;100098.56;;;21.60;100.00
74218;BME280;62579;47.288;18.646;2023-08-17T06:10:21;100095.06;;;21.60;100.00
74218;BME280;62579;47.288;18.646;2023-08-17T06:12:50;100097.59;;;21.65;100.00
74218;BME280;62579;47.288;18.646;2023-08-17T06:15:15;100101.28;;;21.68;100.00
74218;BME280;62579;47.288;18.646;2023-08-17T06:17:40;100096.59;;;21.78;100.00
74218;BME280;62579;47.288;18.646;2023-08-17T06:20:06;100097.06;;;21.67;100.00
74218;BME280;62579;47.288;18.646;2023-08-17T06:22:34;100099.00;;;21.74;100.00
74218;BME280;62579;47.288;18.646;2023-08-17T06:24:59;100093.69;;;21.93;99.80
74218;BME280;62579;47.288;18.646;2023-08-17T06:27:25;100085.56;;;22.12;97.37
74218;BME280;62579;47.288;18.646;2023-08-17T06:29:50;100088.66;;;21.99;97.88
74218;BME280;62579;47.288;18.646;2023-08-17T06:32:16;100085.53;;;21.95;96.74
74218;BME280;62579;47.288;18.646;2023-08-17T06:34:41;100079.94;;;22.02;94.54
74218;BME280;62579;47.288;18.646;2023-08-17T06:37:06;100080.41;;;22.26;94.29
74218;BME280;62579;47.288;18.646;2023-08-17T06:39:32;100088.97;;;22.37;93.97
74218;BME280;62579;47.288;18.646;2023-08-17T06:41:57;100083.88;;;22.43;92.80
74218;BME280;62579;47.288;18.646;2023-08-17T06:44:22;100085.69;;;22.48;94.26
74218;BME280;62579;47.288;18.646;2023-08-17T06:46:48;100088.97;;;22.37;93.74
74218;BME280;62579;47.288;18.646;2023-08-17T06:49:13;100089.19;;;22.66;92.53
74218;BME280;62579;47.288;18.646;2023-08-17T06:51:38;100089.41;;;22.78;92.65
74218;BME280;62579;47.288;18.646;2023-08-17T06:54:04;100091.59;;;22.62;89.38
74218;BME280;62579;47.288;18.646;2023-08-17T06:56:29;100087.56;;;22.63;89.45
74218;BME280;62579;47.288;18.646;2023-08-17T06:58:54;100088.56;;;22.85;89.46
74218;BME280;62579;47.288;18.646;2023-08-17T07:01:20;100083.03;;;22.85;89.61
74218;BME280;62579;47.288;18.646;2023-08-17T07:03:45;100079.50;;;22.84;87.97
74218;BME280;62579;47.288;18.646;2023-08-17T07:06:10;100095.16;;;22.89;88.16
74218;BME280;62579;47.288;18.646;2023-08-17T07:08:35;100086.38;;;22.83;83.68
74218;BME280;62579;47.288;18.646;2023-08-17T07:11:01;100084.06;;;22.89;84.58
74218;BME280;62579;47.288;18.646;2023-08-17T07:13:26;100084.06;;;22.89;84.01
74218;BME280;62579;47.288;18.646;2023-08-17T07:15:51;100087.09;;;23.10;84.00
74218;BME280;62579;47.288;18.646;2023-08-17T07:18:16;100072.28;;;23.34;82.56
74218;BME280;62579;47.288;18.646;2023-08-17T07:20:42;100076.69;;;23.38;79.82
74218;BME280;62579;47.288;18.646;2023-08-17T07:23:07;100081.84;;;23.14;81.33
74218;BME280;62579;47.288;18.646;2023-08-17T07:25:32;100090.75;;;23.13;82.69
74218;BME280;62579;47.288;18.646;2023-08-17T07:27:58;100089.31;;;23.21;82.87
74218;BME280;62579;47.288;18.646;2023-08-17T07:30:23;100093.97;;;23.46;82.89
74218;BME280;62579;47.288;18.646;2023-08-17T07:32:48;100102.56;;;23.40;82.60
74218;BME280;62579;47.288;18.646;2023-08-17T07:35:13;100096.47;;;23.51;82.61
74218;BME280;62579;47.288;18.646;2023-08-17T07:37:38;100096.72;;;23.82;79.05
74218;BME280;62579;47.288;18.646;2023-08-17T07:40:04;100090.84;;;23.78;79.02
74218;BME280;62579;47.288;18.646;2023-08-17T07:42:29;100095.69;;;23.87;78.77
74218;BME280;62579;47.288;18.646;2023-08-17T07:44:55;100093.66;;;23.87;81.16
74218;BME280;62579;47.288;18.646;2023-08-17T07:47:20;100093.91;;;23.72;82.12
74218;BME280;62579;47.288;18.646;2023-08-17T07:49:45;100088.22;;;23.99;80.11
74218;BME280;62579;47.288;18.646;2023-08-17T07:52:10;100091.91;;;24.21;80.09
74218;BME280;62579;47.288;18.646;2023-08-17T07:54:35;100084.03;;;24.17;79.20
74218;BME280;62579;47.288;18.646;2023-08-17T07:57:01;100087.25;;;24.33;81.42
74218;BME280;62579;47.288;18.646;2023-08-17T07:59:28;100088.13;;;24.35;79.45
74218;BME280;62579;47.288;18.646;2023-08-17T08:01:53;100095.59;;;24.33;80.94
74218;BME280;62579;47.288;18.646;2023-08-17T08:04:18;100088.69;;;24.53;78.11
74218;BME280;62579;47.288;18.646;2023-08-17T08:06:43;100091.47;;;24.63;78.95
74218;BME280;62579;47.288;18.646;2023-08-17T08:09:08;100089.75;;;24.38;79.14
74218;BME280;62579;47.288;18.646;2023-08-17T08:11:34;100092.53;;;24.19;81.34
74218;BME280;62579;47.288;18.646;2023-08-17T08:13:59;100087.38;;;24.16;81.54
74218;BME280;62579;47.288;18.646;2023-08-17T08:16:24;100085.78;;;24.13;82.25
74218;BME280;62579;47.288;18.646;2023-08-17T08:18:49;100085.91;;;23.96;82.08
74218;BME280;62579;47.288;18.646;2023-08-17T08:21:15;100096.03;;;24.10;83.19
74218;BME280;62579;47.288;18.646;2023-08-17T08:23:40;100083.16;;;24.15;84.25
74218;BME280;62579;47.288;18.646;2023-08-17T08:26:05;100092.38;;;24.17;82.42
74218;BME280;62579;47.288;18.646;2023-08-17T08:28:30;100088.25;;;24.18;81.64
74218;BME280;62579;47.288;18.646;2023-08-17T08:31:00;100093.66;;;24.45;81.16
74218;BME280;62579;47.288;18.646;2023-08-17T08:33:25;100095.28;;;24.58;81.54
74218;BME280;62579;47.288;18.646;2023-08-17T08:35:51;100090.03;;;24.33;81.37
74218;BME280;62579;47.288;18.646;2023-08-17T08:38:17;100091.34;;;24.13;78.85
74218;BME280;62579;47.288;18.646;2023-08-17T08:40:42;100082.72;;;24.09;79.20
74218;BME280;62579;47.288;18.646;2023-08-17T08:43:09;100090.31;;;24.37;79.26
74218;BME280;62579;47.288;18.646;2023-08-17T08:45:35;100082.25;;;24.50;78.31
74218;BME280;62579;47.288;18.646;2023-08-17T08:48:00;100083.50;;;24.78;77.16
74218;BME280;62579;47.288;18.646;2023-08-17T08:50:26;100082.38;;;24.81;75.36
74218;BME280;62579;47.288;18.646;2023-08-17T08:53:00;100073.88;;;24.79;74.88
74218;BME280;62579;47.288;18.646;2023-08-17T08:55:29;100073.59;;;24.66;75.48
74218;BME280;62579;47.288;18.646;2023-08-17T08:57:55;100073.12;;;24.69;76.02
74218;BME280;62579;47.288;18.646;2023-08-17T09:00:21;100070.63;;;24.83;73.74
74218;BME280;62579;47.288;18.646;2023-08-17T09:02:46;100072.97;;;24.86;73.39
74218;BME280;62579;47.288;18.646;2023-08-17T09:05:12;100073.41;;;24.83;73.99
74218;BME280;62579;47.288;18.646;2023-08-17T09:07:38;100075.47;;;24.73;72.57
74218;BME280;62579;47.288;18.646;2023-08-17T09:10:04;100068.41;;;24.91;72.38
74218;BME280;62579;47.288;18.646;2023-08-17T09:12:30;100067.03;;;25.11;73.43
74218;BME280;62579;47.288;18.646;2023-08-17T09:14:55;100059.50;;;25.44;72.55
74218;BME280;62579;47.288;18.646;2023-08-17T09:17:24;100061.37;;;25.30;72.12
74218;BME280;62579;47.288;18.646;2023-08-17T09:19:49;100055.59;;;25.07;71.17
74218;BME280;62579;47.288;18.646;2023-08-17T09:22:21;100060.41;;;25.16;73.12
74218;BME280;62579;47.288;18.646;2023-08-17T09:24:46;100046.34;;;25.14;69.02
74218;BME280;62579;47.288;18.646;2023-08-17T09:27:12;100053.91;;;25.23;71.88
74218;BME280;62579;47.288;18.646;2023-08-17T09:29:38;100048.56;;;25.46;69.78
74218;BME280;62579;47.288;18.646;2023-08-17T09:32:07;100050.47;;;25.86;70.08
74218;BME280;62579;47.288;18.646;2023-08-17T09:34:32;100045.31;;;25.92;70.09
74218;BME280;62579;47.288;18.646;2023-08-17T09:37:04;100050.16;;;25.92;70.80
74218;BME280;62579;47.288;18.646;2023-08-17T09:39:30;100036.25;;;25.82;70.85
74218;BME280;62579;47.288;18.646;2023-08-17T09:41:55;100049.88;;;25.88;70.68
74218;BME280;62579;47.288;18.646;2023-08-17T09:44:20;100039.53;;;26.11;72.06
74218;BME280;62579;47.288;18.646;2023-08-17T09:46:46;100035.78;;;26.07;72.06
74218;BME280;62579;47.288;18.646;2023-08-17T09:49:11;100034.16;;;25.92;72.27
74218;BME280;62579;47.288;18.646;2023-08-17T09:51:37;100027.88;;;26.03;71.70
74218;BME280;62579;47.288;18.646;2023-08-17T09:54:02;100032.22;;;25.95;70.02
74218;BME280;62579;47.288;18.646;2023-08-17T09:56:27;100028.28;;;26.09;69.97
74218;BME280;62579;47.288;18.646;2023-08-17T09:58:53;100034.44;;;26.29;70.49
74218;BME280;62579;47.288;18.646;2023-08-17T10:01:18;100034.91;;;26.04;71.39
74218;BME280;62579;47.288;18.646;2023-08-17T10:03:44;100037.13;;;25.63;71.18
74218;BME280;62579;47.288;18.646;2023-08-17T10:06:12;100036.41;;;25.84;71.32
74218;BME280;62579;47.288;18.646;2023-08-17T10:08:47;100029.09;;;26.00;71.45
74218;BME280;62579;47.288;18.646;2023-08-17T10:11:16;100021.44;;;26.01;69.52
74218;BME280;62579;47.288;18.646;2023-08-17T10:13:49;100029.81;;;26.01;70.73
74218;BME280;62579;47.288;18.646;2023-08-17T10:18:53;100020.22;;;25.92;71.35
74218;BME280;62579;47.288;18.646;2023-08-17T10:21:24;100022.12;;;25.90;70.75
74218;BME280;62579;47.288;18.646;2023-08-17T10:23:52;100025.72;;;25.81;71.00
74218;BME280;62579;47.288;18.646;2023-08-17T10:26:18;100022.78;;;26.00;71.19
74218;BME280;62579;47.288;18.646;2023-08-17T10:28:44;100018.09;;;25.81;71.83
74218;BME280;62579;47.288;18.646;2023-08-17T10:31:09;100011.84;;;25.92;70.23
74218;BME280;62579;47.288;18.646;2023-08-17T10:33:35;100024.81;;;26.20;68.21
74218;BME280;62579;47.288;18.646;2023-08-17T10:36:01;100015.12;;;26.21;69.01
74218;BME280;62579;47.288;18.646;2023-08-17T10:38:26;100015.28;;;26.02;68.09
74218;BME280;62579;47.288;18.646;2023-08-17T10:43:52;100015.69;;;26.53;65.60
74218;BME280;62579;47.288;18.646;2023-08-17T10:46:18;100013.00;;;26.55;65.30
74218;BME280;62579;47.288;18.646;2023-08-17T10:48:43;100015.75;;;26.32;64.47
74218;BME280;62579;47.288;18.646;2023-08-17T10:51:09;100016.37;;;26.30;65.18
74218;BME280;62579;47.288;18.646;2023-08-17T10:53:38;100009.44;;;26.31;64.43
74218;BME280;62579;47.288;18.646;2023-08-17T10:56:07;100011.41;;;26.40;65.59
74218;BME280;62579;47.288;18.646;2023-08-17T10:58:35;100014.44;;;26.44;64.28
74218;BME280;62579;47.288;18.646;2023-08-17T11:01:00;100014.94;;;26.52;64.84
74218;BME280;62579;47.288;18.646;2023-08-17T11:03:26;100012.34;;;26.33;65.06
74218;BME280;62579;47.288;18.646;2023-08-17T11:05:53;100019.94;;;26.54;64.91
74218;BME280;62579;47.288;18.646;2023-08-17T11:10:48;100006.41;;;26.95;63.67
74218;BME280;62579;47.288;18.646;2023-08-17T11:13:21;100007.72;;;27.17;63.96
74218;BME280;62579;47.288;18.646;2023-08-17T11:15:47;100012.84;;;27.20;63.88
74218;BME280;62579;47.288;18.646;2023-08-17T11:18:13;100010.66;;;26.96;63.23
74218;BME280;62579;47.288;18.646;2023-08-17T11:20:39;100007.50;;;27.01;63.16
74218;BME280;62579;47.288;18.646;2023-08-17T11:23:05;100012.84;;;27.20;62.06
74218;BME280;62579;47.288;18.646;2023-08-17T11:25:31;100006.13;;;27.25;61.35
74218;BME280;62579;47.288;18.646;2023-08-17T11:27:56;100002.59;;;27.36;61.62
74218;BME280;62579;47.288;18.646;2023-08-17T11:30:21;100001.62;;;27.43;60.53
74218;BME280;62579;47.288;18.646;2023-08-17T11:32:50;99999.94;;;27.50;61.91
74218;BME280;62579;47.288;18.646;2023-08-17T11:35:16;99994.59;;;27.79;62.01
74218;BME280;62579;47.288;18.646;2023-08-17T11:37:41;99997.03;;;27.48;61.22
74218;BME280;62579;47.288;18.646;2023-08-17T11:40:07;100007.47;;;27.24;62.13
74218;BME280;62579;47.288;18.646;2023-08-17T11:42:34;99996.16;;;27.34;62.05
74218;BME280;62579;47.288;18.646;2023-08-17T11:45:01;100001.88;;;27.59;62.61
74218;BME280;62579;47.288;18.646;2023-08-17T11:47:26;99993.81;;;27.65;60.86
74218;BME280;62579;47.288;18.646;2023-08-17T11:49:58;99986.94;;;27.43;60.67
74218;BME280;62579;47.288;18.646;2023-08-17T11:52:25;99985.34;;;27.88;61.28
74218;BME280;62579;47.288;18.646;2023-08-17T11:54:51;99981.69;;;27.86;61.48
74218;BME280;62579;47.288;18.646;2023-08-17T11:57:16;99990.62;;;27.71;60.53
74218;BME280;62579;47.288;18.646;2023-08-17T11:59:41;99990.69;;;27.48;60.57
74218;BME280;62579;47.288;18.646;2023-08-17T12:02:06;99988.75;;;27.50;61.10
74218;BME280;62579;47.288;18.646;2023-08-17T12:04:32;99994.56;;;27.54;60.51
74218;BME280;62579;47.288;18.646;2023-08-17T12:06:58;99988.56;;;27.71;60.98
74218;BME280;62579;47.288;18.646;2023-08-17T12:09:23;99980.66;;;28.05;62.51
74218;BME280;62579;47.288;18.646;2023-08-17T12:11:52;99977.69;;;28.14;59.65
74218;BME280;62579;47.288;18.646;2023-08-17T12:14:18;99982.75;;;27.67;60.65
74218;BME280;62579;47.288;18.646;2023-08-17T12:16:48;99979.53;;;27.73;60.08
74218;BME280;62579;47.288;18.646;2023-08-17T12:19:13;99976.44;;;27.92;60.93
74218;BME280;62579;47.288;18.646;2023-08-17T12:21:40;99964.81;;;28.09;59.28
74218;BME280;62579;47.288;18.646;2023-08-17T12:24:05;99971.44;;;28.41;59.04
74218;BME280;62579;47.288;18.646;2023-08-17T12:26:31;99972.88;;;28.81;59.85
74218;BME280;62579;47.288;18.646;2023-08-17T12:28:57;99961.06;;;28.82;59.50
74218;BME280;62579;47.288;18.646;2023-08-17T12:31:23;99959.59;;;29.08;58.75
74218;BME280;62579;47.288;18.646;2023-08-17T12:33:48;99962.16;;;29.18;56.80
74218;BME280;62579;47.288;18.646;2023-08-17T12:36:13;99953.25;;;29.35;57.66